createdAt,value
2023-05-07T00:03:03.000Z,4.9
2023-05-07T00:06:36.000Z,4.8
2023-05-07T00:10:09.000Z,5.3
2023-05-07T00:13:41.000Z,3.1
2023-05-07T00:17:14.000Z,4.3
2023-05-07T00:20:47.000Z,4
2023-05-07T00:24:19.000Z,4.4
2023-05-07T00:27:52.000Z,5.5
2023-05-07T00:30:43.000Z,5.2
2023-05-07T00:34:16.000Z,5.3
2023-05-07T00:37:48.000Z,4.6
2023-05-07T00:41:21.000Z,6
2023-05-07T00:44:54.000Z,10.2
2023-05-07T00:48:27.000Z,10
2023-05-07T00:51:59.000Z,12.1
2023-05-07T00:55:32.000Z,8.6
2023-05-07T00:59:05.000Z,9
2023-05-07T01:02:37.000Z,13.8
2023-05-07T01:06:11.000Z,13.8
2023-05-07T01:09:03.000Z,11.6
2023-05-07T01:12:36.000Z,18.4
2023-05-07T01:16:08.000Z,19.1
2023-05-07T01:19:41.000Z,21
2023-05-07T01:23:13.000Z,21.3
2023-05-07T01:26:46.000Z,18.5
2023-05-07T01:30:19.000Z,16.3
2023-05-07T01:33:51.000Z,19
2023-05-07T01:37:24.000Z,16.6
2023-05-07T01:40:57.000Z,22.6
2023-05-07T01:44:30.000Z,16.1
2023-05-07T01:47:21.000Z,25.9
2023-05-07T01:50:53.000Z,25.3
2023-05-07T01:54:26.000Z,26.4
2023-05-07T01:57:59.000Z,24.8
2023-05-07T02:01:31.000Z,22.6
2023-05-07T02:05:04.000Z,22.9
2023-05-07T02:08:37.000Z,24.6
2023-05-07T02:12:10.000Z,27
2023-05-07T02:15:42.000Z,25.6
2023-05-07T02:19:15.000Z,28
2023-05-07T02:22:48.000Z,30.8
2023-05-07T02:25:39.000Z,29
2023-05-07T02:29:11.000Z,31.6
2023-05-07T02:32:44.000Z,30.3
2023-05-07T02:36:16.000Z,30.6
2023-05-07T02:39:49.000Z,26
2023-05-07T02:43:22.000Z,28.3
2023-05-07T02:46:54.000Z,23.8
2023-05-07T02:50:27.000Z,30.4
2023-05-07T02:54:00.000Z,27.8
2023-05-07T02:57:32.000Z,27.8
2023-05-07T03:01:05.000Z,32.3
2023-05-07T03:03:56.000Z,23.8
2023-05-07T03:07:29.000Z,30.8
2023-05-07T03:11:02.000Z,25.4
2023-05-07T03:14:34.000Z,35
2023-05-07T03:18:07.000Z,29.7
2023-05-07T03:21:40.000Z,36.6
2023-05-07T03:25:13.000Z,33.4
2023-05-07T03:28:45.000Z,32.9
2023-05-07T03:32:18.000Z,34.2
2023-05-07T03:35:51.000Z,31.1
2023-05-07T03:39:24.000Z,29
2023-05-07T03:42:15.000Z,38.4
2023-05-07T03:45:47.000Z,36.9
2023-05-07T03:49:20.000Z,37.6
2023-05-07T03:52:53.000Z,40
2023-05-07T03:56:25.000Z,40.1
2023-05-07T03:59:58.000Z,42.6
2023-05-07T04:03:31.000Z,39.2
2023-05-07T04:07:04.000Z,42.4
2023-05-07T04:10:36.000Z,38.4
2023-05-07T04:14:09.000Z,41.9
2023-05-07T04:17:42.000Z,40.4
2023-05-07T04:20:33.000Z,43.2
2023-05-07T04:24:06.000Z,41.7
2023-05-07T04:27:38.000Z,39.1
2023-05-07T04:31:11.000Z,38.4
2023-05-07T04:34:44.000Z,46.7
2023-05-07T04:38:16.000Z,35
2023-05-07T04:41:49.000Z,44.7
2023-05-07T04:45:22.000Z,35.1
2023-05-07T04:48:54.000Z,35.2
2023-05-07T04:52:27.000Z,38.7
2023-05-07T04:56:00.000Z,38.5
2023-05-07T04:58:51.000Z,43.4
2023-05-07T05:02:23.000Z,39.5
2023-05-07T05:05:56.000Z,35.7
2023-05-07T05:09:29.000Z,39
2023-05-07T05:13:02.000Z,34.4
2023-05-07T05:16:34.000Z,33.6
2023-05-07T05:20:07.000Z,42.7
2023-05-07T05:23:39.000Z,37.6
2023-05-07T05:27:12.000Z,40.1
2023-05-07T05:30:45.000Z,38.9
2023-05-07T05:34:17.000Z,36.4
2023-05-07T05:37:09.000Z,43.4
2023-05-07T05:40:41.000Z,43.6
2023-05-07T05:44:14.000Z,37.5
2023-05-07T05:47:46.000Z,39.7
2023-05-07T05:51:19.000Z,39
2023-05-07T05:54:52.000Z,42.4
2023-05-07T05:58:24.000Z,39
2023-05-07T06:01:57.000Z,34.9
2023-05-07T06:05:30.000Z,35.9
2023-05-07T06:09:02.000Z,41.3
2023-05-07T06:12:35.000Z,42
2023-05-07T06:15:26.000Z,41.4
2023-05-07T06:18:59.000Z,35.1
2023-05-07T06:22:32.000Z,37.7
2023-05-07T06:26:04.000Z,41.1
2023-05-07T06:29:37.000Z,35.1
2023-05-07T06:33:10.000Z,35.5
2023-05-07T06:36:42.000Z,35.5
2023-05-07T06:40:15.000Z,35.9
2023-05-07T06:43:48.000Z,36.4
2023-05-07T06:47:21.000Z,34.2
2023-05-07T06:50:53.000Z,39.2
2023-05-07T06:53:45.000Z,40.5
2023-05-07T06:57:17.000Z,36.5
2023-05-07T07:00:50.000Z,36
2023-05-07T07:04:23.000Z,39.6
2023-05-07T07:07:55.000Z,40.2
2023-05-07T07:11:28.000Z,35.1
2023-05-07T07:15:00.000Z,38.9
2023-05-07T07:18:33.000Z,35.8
2023-05-07T07:22:06.000Z,34.5
2023-05-07T07:25:39.000Z,39.9
2023-05-07T07:29:12.000Z,33.1
2023-05-07T07:32:03.000Z,32.4
2023-05-07T07:35:36.000Z,37.5
2023-05-07T07:39:08.000Z,29.9
2023-05-07T07:42:41.000Z,34.1
2023-05-07T07:46:15.000Z,34.1
2023-05-07T07:49:48.000Z,31.7
2023-05-07T07:53:20.000Z,34.1
2023-05-07T07:56:53.000Z,31.9
2023-05-07T08:00:26.000Z,34.9
2023-05-07T08:03:58.000Z,28.7
2023-05-07T08:07:32.000Z,31.1
2023-05-07T08:10:23.000Z,29.4
2023-05-07T08:13:55.000Z,33.3
2023-05-07T08:17:28.000Z,32
2023-05-07T08:21:01.000Z,33.9
2023-05-07T08:24:33.000Z,29.4
2023-05-07T08:28:06.000Z,30.5
2023-05-07T08:31:39.000Z,32
2023-05-07T08:35:11.000Z,29.6
2023-05-07T08:38:44.000Z,32
2023-05-07T08:42:17.000Z,30.7
2023-05-07T08:45:50.000Z,29.1
2023-05-07T08:48:41.000Z,30.5
2023-05-07T08:52:13.000Z,27.5
2023-05-07T08:55:46.000Z,31.1
2023-05-07T08:59:19.000Z,31.6
2023-05-07T09:02:51.000Z,29.8
2023-05-07T09:06:24.000Z,30.6
2023-05-07T09:09:57.000Z,31.3
2023-05-07T09:13:29.000Z,30.8
2023-05-07T09:17:02.000Z,29.5
2023-05-07T09:20:35.000Z,27.2
2023-05-07T09:24:07.000Z,27.6
2023-05-07T09:26:59.000Z,24.9
2023-05-07T09:30:33.000Z,29.4
2023-05-07T09:34:05.000Z,28
2023-05-07T09:37:38.000Z,29.9
2023-05-07T09:41:11.000Z,28.1
2023-05-07T09:44:43.000Z,24.7
2023-05-07T09:48:16.000Z,27.9
2023-05-07T09:51:49.000Z,25.6
2023-05-07T09:55:21.000Z,27.2
2023-05-07T09:58:54.000Z,25.2
2023-05-07T10:02:27.000Z,22.9
2023-05-07T10:05:18.000Z,23.8
2023-05-07T10:08:51.000Z,22.5
2023-05-07T10:12:23.000Z,21.4
2023-05-07T10:15:56.000Z,24.4
2023-05-07T10:19:29.000Z,23.3
2023-05-07T10:23:01.000Z,22.7
2023-05-07T10:26:35.000Z,20.9
2023-05-07T10:30:07.000Z,21.8
2023-05-07T10:33:40.000Z,20.8
2023-05-07T10:37:13.000Z,19.2
2023-05-07T10:40:46.000Z,20.4
2023-05-07T10:43:37.000Z,17.7
2023-05-07T10:47:11.000Z,18.7
2023-05-07T10:50:43.000Z,17.4
2023-05-07T10:54:16.000Z,18.9
2023-05-07T10:57:49.000Z,16.5
2023-05-07T11:01:21.000Z,17.4
2023-05-07T11:04:54.000Z,17.1
2023-05-07T11:08:27.000Z,13.8
2023-05-07T11:11:59.000Z,15.4
2023-05-07T11:15:32.000Z,15.1
2023-05-07T11:19:05.000Z,12.4
2023-05-07T11:21:56.000Z,15.3
2023-05-07T11:25:29.000Z,12.9
2023-05-07T11:29:01.000Z,13.5
2023-05-07T11:32:34.000Z,13.2
2023-05-07T11:36:06.000Z,10.7
2023-05-07T11:39:39.000Z,10
2023-05-07T11:43:12.000Z,10.3
2023-05-07T11:46:44.000Z,12.3
2023-05-07T11:50:17.000Z,11.7
2023-05-07T11:53:50.000Z,13.2
2023-05-07T11:57:23.000Z,12.1
2023-05-07T12:00:14.000Z,10.2
2023-05-07T12:03:46.000Z,11.7
2023-05-07T12:07:19.000Z,11.2
2023-05-07T12:10:52.000Z,9.8
2023-05-07T12:14:24.000Z,8.8
2023-05-07T12:17:57.000Z,9.8
2023-05-07T12:21:29.000Z,9.3
2023-05-07T12:25:02.000Z,9.8
2023-05-07T12:28:35.000Z,9.6
2023-05-07T12:32:08.000Z,9.8
2023-05-07T12:35:41.000Z,9.3
2023-05-07T12:38:32.000Z,10.5
2023-05-07T12:42:05.000Z,8.8
2023-05-07T12:45:37.000Z,9.5
2023-05-07T12:49:10.000Z,10.5
2023-05-07T12:52:43.000Z,8.5
2023-05-07T12:56:16.000Z,9.5
2023-05-07T12:59:48.000Z,9.5
2023-05-07T13:03:21.000Z,7.7
2023-05-07T13:06:54.000Z,8.3
2023-05-07T13:10:27.000Z,8.6
2023-05-07T13:13:59.000Z,7.5
2023-05-07T13:16:51.000Z,8.6
2023-05-07T13:20:23.000Z,9
2023-05-07T13:23:56.000Z,7.8
2023-05-07T13:27:29.000Z,9.1
2023-05-07T13:31:01.000Z,8.3
2023-05-07T13:34:34.000Z,9
2023-05-07T13:38:07.000Z,8.7
2023-05-07T13:41:40.000Z,8.6
2023-05-07T13:45:12.000Z,8
2023-05-07T13:48:45.000Z,9.7
2023-05-07T13:52:18.000Z,8.2
2023-05-07T13:55:09.000Z,8.8
2023-05-07T13:58:41.000Z,7.7
2023-05-07T14:02:25.000Z,10.4
2023-05-07T14:05:58.000Z,8.8
2023-05-07T14:09:31.000Z,11.1
2023-05-07T14:13:04.000Z,9.9
2023-05-07T14:16:36.000Z,11.1
2023-05-07T14:20:09.000Z,10.9
2023-05-07T14:23:42.000Z,11.8
2023-05-07T14:27:15.000Z,10.1
2023-05-07T14:30:48.000Z,12.1
2023-05-07T14:33:39.000Z,10.4
2023-05-07T14:37:12.000Z,11.8
2023-05-07T14:40:45.000Z,10.8
2023-05-07T14:44:18.000Z,10.9
2023-05-07T14:47:51.000Z,10.3
2023-05-07T14:51:24.000Z,10.7
2023-05-07T14:54:56.000Z,11
2023-05-07T14:58:29.000Z,12.2
2023-05-07T15:02:02.000Z,13.8
2023-05-07T15:05:35.000Z,12
2023-05-07T15:09:08.000Z,10.1
2023-05-07T15:11:59.000Z,10.4
2023-05-07T15:15:32.000Z,10.2
2023-05-07T15:19:04.000Z,10.4
2023-05-07T15:22:37.000Z,11.3
2023-05-07T15:26:09.000Z,9.9
2023-05-07T15:29:42.000Z,11
2023-05-07T15:33:15.000Z,9.8
2023-05-07T15:36:48.000Z,9.7
2023-05-07T15:40:20.000Z,10.3
2023-05-07T15:43:53.000Z,11.5
2023-05-07T15:47:26.000Z,10.6
2023-05-07T15:50:17.000Z,10.2
2023-05-07T15:53:50.000Z,9.9
2023-05-07T15:57:23.000Z,9.3
2023-05-07T16:00:55.000Z,12.5
2023-05-07T16:04:28.000Z,10.4
2023-05-07T16:08:01.000Z,10.8
2023-05-07T16:11:34.000Z,12.6
2023-05-07T16:15:06.000Z,11.8
2023-05-07T16:18:40.000Z,10.6
2023-05-07T16:22:12.000Z,10.1
2023-05-07T16:25:45.000Z,10.7
2023-05-07T16:28:36.000Z,10.6
2023-05-07T16:32:09.000Z,10.9
2023-05-07T16:35:42.000Z,11
2023-05-07T16:39:14.000Z,11.7
2023-05-07T16:42:47.000Z,10.5
2023-05-07T16:46:20.000Z,10.7
2023-05-07T16:49:53.000Z,10.2
2023-05-07T16:53:26.000Z,10.3
2023-05-07T16:56:59.000Z,10.6
2023-05-07T17:00:31.000Z,11.4
2023-05-07T17:04:15.000Z,11
2023-05-07T17:07:07.000Z,10.8
2023-05-07T17:10:41.000Z,10.4
2023-05-07T17:14:14.000Z,10.5
2023-05-07T17:17:47.000Z,12.8
2023-05-07T17:21:20.000Z,11.9
2023-05-07T17:24:52.000Z,13
2023-05-07T17:28:25.000Z,11.6
2023-05-07T17:31:58.000Z,10.1
2023-05-07T17:35:33.000Z,11.2
2023-05-07T17:39:06.000Z,11.2
2023-05-07T17:42:39.000Z,12.4
2023-05-07T17:45:30.000Z,9.8
2023-05-07T17:49:03.000Z,11.2
2023-05-07T17:52:35.000Z,9.9
2023-05-07T17:56:08.000Z,11.6
2023-05-07T17:59:41.000Z,12.2
2023-05-07T18:03:13.000Z,9.7
2023-05-07T18:06:46.000Z,10.7
2023-05-07T18:10:19.000Z,10.7
2023-05-07T18:13:51.000Z,10.9
2023-05-07T18:17:24.000Z,12.5
2023-05-07T18:20:57.000Z,11.4
2023-05-07T18:23:48.000Z,9.7
2023-05-07T18:27:21.000Z,11.6
2023-05-07T18:30:53.000Z,11.5
2023-05-07T18:34:26.000Z,11.4
2023-05-07T18:37:59.000Z,10.6
2023-05-07T18:41:31.000Z,11.1
2023-05-07T18:45:04.000Z,10
2023-05-07T18:48:37.000Z,11.7
2023-05-07T18:52:10.000Z,12.4
2023-05-07T18:55:42.000Z,12.2
2023-05-07T18:59:15.000Z,11
2023-05-07T19:02:06.000Z,12
2023-05-07T19:05:39.000Z,10.8
2023-05-07T19:09:12.000Z,11.9
2023-05-07T19:12:44.000Z,11.8
2023-05-07T19:16:17.000Z,9.6
2023-05-07T19:19:50.000Z,10.5
2023-05-07T19:23:22.000Z,10
2023-05-07T19:26:55.000Z,9.9
2023-05-07T19:30:28.000Z,12.2
2023-05-07T19:34:01.000Z,10.7
2023-05-07T19:37:33.000Z,10.8
2023-05-07T19:40:24.000Z,12.5
2023-05-07T19:43:57.000Z,10.2
2023-05-07T19:47:30.000Z,11.5
2023-05-07T19:51:02.000Z,11.9
2023-05-07T19:54:35.000Z,11
2023-05-07T19:58:08.000Z,12.1
2023-05-07T20:01:40.000Z,12.7
2023-05-07T20:05:13.000Z,12.6
2023-05-07T20:08:46.000Z,12
2023-05-07T20:12:18.000Z,11
2023-05-07T20:15:51.000Z,10.5
2023-05-07T20:18:42.000Z,10.7
2023-05-07T20:22:15.000Z,11.3
2023-05-07T20:25:48.000Z,11.7
2023-05-07T20:29:20.000Z,11.5
2023-05-07T20:32:53.000Z,12.6
2023-05-07T20:36:26.000Z,12
2023-05-07T20:39:59.000Z,11.4
2023-05-07T20:43:31.000Z,12.7
2023-05-07T20:47:04.000Z,11.3
2023-05-07T20:50:36.000Z,12.8
2023-05-07T20:54:09.000Z,12.1
2023-05-07T20:57:00.000Z,11.7
2023-05-07T21:00:33.000Z,11.5
2023-05-07T21:04:05.000Z,11.8
2023-05-07T21:07:38.000Z,10.8
2023-05-07T21:11:11.000Z,14
2023-05-07T21:14:43.000Z,11.7
2023-05-07T21:18:16.000Z,11.2
2023-05-07T21:21:49.000Z,12.2
2023-05-07T21:25:21.000Z,11.7
2023-05-07T21:28:54.000Z,11.2
2023-05-07T21:32:27.000Z,10.9
2023-05-07T21:35:18.000Z,11.5
2023-05-07T21:38:51.000Z,12.6
2023-05-07T21:42:24.000Z,12.7
2023-05-07T21:45:56.000Z,11.5
2023-05-07T21:49:29.000Z,12.3
2023-05-07T21:53:02.000Z,12.5
2023-05-07T21:56:34.000Z,11.1
2023-05-07T22:00:07.000Z,11.8
2023-05-07T22:03:40.000Z,11.4
2023-05-07T22:07:13.000Z,11.6
2023-05-07T22:10:46.000Z,13.1
2023-05-07T22:13:37.000Z,13.3
2023-05-07T22:17:10.000Z,14
2023-05-07T22:20:42.000Z,12.7
2023-05-07T22:24:15.000Z,11.3
2023-05-07T22:27:48.000Z,12.1
2023-05-07T22:31:20.000Z,12.9
2023-05-07T22:34:53.000Z,13.2
2023-05-07T22:38:26.000Z,13.9
2023-05-07T22:41:58.000Z,13.1
2023-05-07T22:45:31.000Z,12.4
2023-05-07T22:49:04.000Z,10.7
2023-05-07T22:51:55.000Z,11.7
2023-05-07T22:55:27.000Z,11.9
2023-05-07T22:59:00.000Z,11.5
2023-05-07T23:02:33.000Z,12.1
2023-05-07T23:06:05.000Z,12.7
2023-05-07T23:09:38.000Z,12
2023-05-07T23:13:11.000Z,13.9
2023-05-07T23:16:43.000Z,11.8
2023-05-07T23:20:16.000Z,12.3
2023-05-07T23:23:49.000Z,11.8
2023-05-07T23:27:22.000Z,10.6
2023-05-07T23:30:13.000Z,11
2023-05-07T23:33:45.000Z,11.3
2023-05-07T23:37:18.000Z,10.8
2023-05-07T23:40:51.000Z,10.5
2023-05-07T23:44:23.000Z,11.1
2023-05-07T23:47:56.000Z,10.9
2023-05-07T23:51:29.000Z,11.2
2023-05-07T23:55:01.000Z,11.2
2023-05-07T23:58:34.000Z,11.4
